Arkansas International Airport Blytheville US
ICAO: KBYH
IATA: BYH
Category: Medium
Scheduled Services: No

Elevation: 254 ft
TransAlt. 18000 ft.

Airport Communications:
MEMPHIS CNTR:134.65
CTAF/UNICOM:122.7

KBYH Zoom In..

Runways:

(A) RW 18 length 11602 ft width 150 ft
ILS 110.30 / hdg 179

(B) RW 36 length 11602 ft width 150 ft
---- / hdg 359

Location; KBYH
Day. 25 / Time. 20.50 Zulu
* Altimeter: 29.89
* Temperature: 32° c. 89.6°f.
* Wind from: 210° Speed 06 kn.
Dewpoint: 21° c.
Visibility: 10 Statute Miles.
Clouds: Broken 3800 ft.
Clouds: Broken 7000 ft.
Clouds: Broken 15000 ft.

KBYH 252050Z 21006KT 10SM BKN038 BKN070 BKN150 32/21 A2989 RMK LAST


Wind From 210°
Speed 06 kn.

 
 
jpsmedia.com for Web Design SOUNDCLOUD worldairports.se 2018   terms of use